Aledo, Illinois
Current Conditions -  °F | °C
As of 8:52 AM on Monday 22 Dec 2014 (Local Time) from KMLI Reporting Station
Haze Haze  
Wind Chill: 28°   Ceiling: 4500
Heat Index: 37°   Visibility: 6mi
Dew Point: 31°   Wind: 14mph
Humidity: 79%   Direction: 100°E
Pressure: 29.77"   Gusts: NA
Location:  41.2°N, 90.75°W
Report Text: KMLI 221452Z 10012KT 6SM HZ OVC045 03/M01 A2977 RMK AO2 SLP084 T00281006 56017
Loading
Personal Weather Stations






























Interactive Weather Map New forecast layout! Learn more

10-Day Weather Forecast

Advertisements
Track Severe Weather on mobile